sensor_id;sensor_type;location;lat;lon;timestamp;P1;durP1;ratioP1;P2;durP2;ratioP2
25549;SDS011;13444;50.562;7.262;2022-09-09T00:06:31;4.68;;;1.33;;
25549;SDS011;13444;50.562;7.262;2022-09-09T00:09:02;5.47;;;1.48;;
25549;SDS011;13444;50.562;7.262;2022-09-09T00:11:42;8.98;;;1.85;;
25549;SDS011;13444;50.562;7.262;2022-09-09T00:14:58;6.97;;;1.33;;
25549;SDS011;13444;50.562;7.262;2022-09-09T00:17:26;3.25;;;1.00;;
25549;SDS011;13444;50.562;7.262;2022-09-09T00:20:16;6.30;;;1.48;;
25549;SDS011;13444;50.562;7.262;2022-09-09T00:22:53;2.85;;;1.30;;
25549;SDS011;13444;50.562;7.262;2022-09-09T00:25:33;5.55;;;2.13;;
25549;SDS011;13444;50.562;7.262;2022-09-09T00:28:09;5.03;;;1.52;;
25549;SDS011;13444;50.562;7.262;2022-09-09T00:30:42;4.45;;;1.00;;
25549;SDS011;13444;50.562;7.262;2022-09-09T00:33:09;4.40;;;1.30;;
25549;SDS011;13444;50.562;7.262;2022-09-09T00:35:41;7.40;;;1.33;;
25549;SDS011;13444;50.562;7.262;2022-09-09T00:40:45;7.93;;;1.33;;
25549;SDS011;13444;50.562;7.262;2022-09-09T00:43:31;6.53;;;1.58;;
25549;SDS011;13444;50.562;7.262;2022-09-09T00:54:49;3.50;;;1.50;;
25549;SDS011;13444;50.562;7.262;2022-09-09T00:57:41;4.45;;;1.20;;
25549;SDS011;13444;50.562;7.262;2022-09-09T01:05:40;5.80;;;1.60;;
25549;SDS011;13444;50.562;7.262;2022-09-09T01:08:15;6.13;;;1.50;;
25549;SDS011;13444;50.562;7.262;2022-09-09T01:10:47;4.07;;;1.20;;
25549;SDS011;13444;50.562;7.262;2022-09-09T01:13:26;3.88;;;1.17;;
25549;SDS011;13444;50.562;7.262;2022-09-09T01:16:00;7.53;;;1.58;;
25549;SDS011;13444;50.562;7.262;2022-09-09T01:18:32;3.83;;;1.33;;
25549;SDS011;13444;50.562;7.262;2022-09-09T01:21:17;3.45;;;1.42;;
25549;SDS011;13444;50.562;7.262;2022-09-09T01:26:45;7.57;;;1.88;;
25549;SDS011;13444;50.562;7.262;2022-09-09T01:29:13;3.88;;;1.40;;
25549;SDS011;13444;50.562;7.262;2022-09-09T01:31:42;4.65;;;1.60;;
25549;SDS011;13444;50.562;7.262;2022-09-09T01:34:19;3.90;;;1.25;;
25549;SDS011;13444;50.562;7.262;2022-09-09T01:39:34;3.80;;;1.15;;
25549;SDS011;13444;50.562;7.262;2022-09-09T01:42:01;5.00;;;1.48;;
25549;SDS011;13444;50.562;7.262;2022-09-09T01:44:28;3.35;;;1.70;;
25549;SDS011;13444;50.562;7.262;2022-09-09T01:46:55;5.15;;;1.35;;
25549;SDS011;13444;50.562;7.262;2022-09-09T01:49:21;7.38;;;1.60;;
25549;SDS011;13444;50.562;7.262;2022-09-09T01:51:49;4.68;;;1.33;;
25549;SDS011;13444;50.562;7.262;2022-09-09T01:54:17;4.47;;;1.67;;
25549;SDS011;13444;50.562;7.262;2022-09-09T02:02:11;6.40;;;1.40;;
25549;SDS011;13444;50.562;7.262;2022-09-09T02:10:11;3.00;;;1.30;;
25549;SDS011;13444;50.562;7.262;2022-09-09T02:12:43;3.85;;;1.30;;
25549;SDS011;13444;50.562;7.262;2022-09-09T02:15:15;6.47;;;1.73;;
25549;SDS011;13444;50.562;7.262;2022-09-09T02:17:49;5.03;;;1.45;;
25549;SDS011;13444;50.562;7.262;2022-09-09T02:20:17;6.47;;;1.40;;
25549;SDS011;13444;50.562;7.262;2022-09-09T02:22:44;3.08;;;1.23;;
25549;SDS011;13444;50.562;7.262;2022-09-09T02:25:14;6.45;;;1.25;;
25549;SDS011;13444;50.562;7.262;2022-09-09T02:27:43;6.15;;;1.42;;
25549;SDS011;13444;50.562;7.262;2022-09-09T02:30:12;3.67;;;1.33;;
25549;SDS011;13444;50.562;7.262;2022-09-09T02:32:38;8.23;;;1.95;;
25549;SDS011;13444;50.562;7.262;2022-09-09T02:35:06;6.25;;;1.20;;
25549;SDS011;13444;50.562;7.262;2022-09-09T02:37:37;4.18;;;1.30;;
25549;SDS011;13444;50.562;7.262;2022-09-09T02:40:08;6.10;;;1.88;;
25549;SDS011;13444;50.562;7.262;2022-09-09T02:42:43;4.85;;;1.40;;
25549;SDS011;13444;50.562;7.262;2022-09-09T02:45:11;4.63;;;1.33;;
25549;SDS011;13444;50.562;7.262;2022-09-09T02:50:24;4.97;;;1.17;;
25549;SDS011;13444;50.562;7.262;2022-09-09T02:53:04;2.20;;;1.10;;
25549;SDS011;13444;50.562;7.262;2022-09-09T02:55:39;5.30;;;1.50;;
25549;SDS011;13444;50.562;7.262;2022-09-09T02:58:16;4.88;;;1.77;;
25549;SDS011;13444;50.562;7.262;2022-09-09T03:00:45;3.80;;;1.42;;
25549;SDS011;13444;50.562;7.262;2022-09-09T03:03:12;3.95;;;1.40;;
25549;SDS011;13444;50.562;7.262;2022-09-09T03:05:38;3.97;;;1.30;;
25549;SDS011;13444;50.562;7.262;2022-09-09T03:08:04;4.38;;;1.35;;
25549;SDS011;13444;50.562;7.262;2022-09-09T03:10:32;4.93;;;1.60;;
25549;SDS011;13444;50.562;7.262;2022-09-09T03:12:58;7.60;;;1.73;;
25549;SDS011;13444;50.562;7.262;2022-09-09T03:15:24;3.70;;;1.20;;
25549;SDS011;13444;50.562;7.262;2022-09-09T03:17:55;5.07;;;1.45;;
25549;SDS011;13444;50.562;7.262;2022-09-09T03:20:22;8.93;;;1.60;;
25549;SDS011;13444;50.562;7.262;2022-09-09T03:22:52;8.43;;;1.73;;
25549;SDS011;13444;50.562;7.262;2022-09-09T03:25:19;4.45;;;1.60;;
25549;SDS011;13444;50.562;7.262;2022-09-09T03:27:45;5.75;;;1.60;;
25549;SDS011;13444;50.562;7.262;2022-09-09T03:30:10;4.80;;;1.63;;
25549;SDS011;13444;50.562;7.262;2022-09-09T03:32:36;4.45;;;1.25;;
25549;SDS011;13444;50.562;7.262;2022-09-09T03:35:02;5.28;;;1.60;;
25549;SDS011;13444;50.562;7.262;2022-09-09T03:37:28;9.45;;;1.92;;
25549;SDS011;13444;50.562;7.262;2022-09-09T03:39:53;5.95;;;1.52;;
25549;SDS011;13444;50.562;7.262;2022-09-09T03:42:21;4.75;;;1.15;;
25549;SDS011;13444;50.562;7.262;2022-09-09T03:44:47;5.95;;;1.77;;
25549;SDS011;13444;50.562;7.262;2022-09-09T03:47:15;4.10;;;1.52;;
25549;SDS011;13444;50.562;7.262;2022-09-09T03:49:44;4.72;;;1.70;;
25549;SDS011;13444;50.562;7.262;2022-09-09T03:52:10;5.53;;;1.60;;
25549;SDS011;13444;50.562;7.262;2022-09-09T03:54:36;6.85;;;1.60;;
25549;SDS011;13444;50.562;7.262;2022-09-09T03:57:02;3.42;;;1.60;;
25549;SDS011;13444;50.562;7.262;2022-09-09T03:59:28;5.47;;;1.45;;
25549;SDS011;13444;50.562;7.262;2022-09-09T04:01:53;5.57;;;1.52;;
25549;SDS011;13444;50.562;7.262;2022-09-09T04:04:19;5.72;;;1.55;;
25549;SDS011;13444;50.562;7.262;2022-09-09T04:06:45;5.18;;;1.60;;
25549;SDS011;13444;50.562;7.262;2022-09-09T04:09:13;4.97;;;1.42;;
25549;SDS011;13444;50.562;7.262;2022-09-09T04:11:39;4.65;;;1.50;;
25549;SDS011;13444;50.562;7.262;2022-09-09T04:14:04;5.47;;;1.50;;
25549;SDS011;13444;50.562;7.262;2022-09-09T04:16:31;4.70;;;1.52;;
25549;SDS011;13444;50.562;7.262;2022-09-09T04:19:02;5.07;;;1.17;;
25549;SDS011;13444;50.562;7.262;2022-09-09T04:21:29;3.72;;;1.40;;
25549;SDS011;13444;50.562;7.262;2022-09-09T04:23:55;4.65;;;1.40;;
25549;SDS011;13444;50.562;7.262;2022-09-09T04:26:21;4.97;;;1.30;;
25549;SDS011;13444;50.562;7.262;2022-09-09T04:28:47;4.32;;;1.40;;
25549;SDS011;13444;50.562;7.262;2022-09-09T04:31:18;7.10;;;1.50;;
25549;SDS011;13444;50.562;7.262;2022-09-09T04:33:46;5.25;;;1.60;;
25549;SDS011;13444;50.562;7.262;2022-09-09T04:36:12;7.13;;;1.77;;
25549;SDS011;13444;50.562;7.262;2022-09-09T04:38:38;3.85;;;1.30;;
25549;SDS011;13444;50.562;7.262;2022-09-09T04:41:03;5.70;;;1.63;;
25549;SDS011;13444;50.562;7.262;2022-09-09T04:43:30;6.97;;;1.55;;
25549;SDS011;13444;50.562;7.262;2022-09-09T04:45:55;4.93;;;1.33;;
25549;SDS011;13444;50.562;7.262;2022-09-09T04:48:21;6.85;;;1.98;;
25549;SDS011;13444;50.562;7.262;2022-09-09T04:51:20;4.85;;;1.15;;
25549;SDS011;13444;50.562;7.262;2022-09-09T04:53:39;6.72;;;1.60;;
25549;SDS011;13444;50.562;7.262;2022-09-09T04:58:35;5.72;;;1.50;;
25549;SDS011;13444;50.562;7.262;2022-09-09T05:01:03;5.90;;;1.58;;
25549;SDS011;13444;50.562;7.262;2022-09-09T05:03:39;6.15;;;1.60;;
25549;SDS011;13444;50.562;7.262;2022-09-09T05:06:09;7.35;;;1.73;;
25549;SDS011;13444;50.562;7.262;2022-09-09T05:08:40;5.30;;;1.50;;
25549;SDS011;13444;50.562;7.262;2022-09-09T05:11:13;5.53;;;1.60;;
25549;SDS011;13444;50.562;7.262;2022-09-09T05:13:47;9.50;;;1.50;;
25549;SDS011;13444;50.562;7.262;2022-09-09T05:16:14;4.55;;;1.45;;
25549;SDS011;13444;50.562;7.262;2022-09-09T05:18:40;4.13;;;1.52;;
25549;SDS011;13444;50.562;7.262;2022-09-09T05:21:07;7.70;;;1.88;;
25549;SDS011;13444;50.562;7.262;2022-09-09T05:23:34;3.33;;;1.60;;
25549;SDS011;13444;50.562;7.262;2022-09-09T05:26:00;7.55;;;1.65;;
25549;SDS011;13444;50.562;7.262;2022-09-09T05:28:26;5.22;;;1.42;;
25549;SDS011;13444;50.562;7.262;2022-09-09T05:30:59;6.03;;;1.40;;
25549;SDS011;13444;50.562;7.262;2022-09-09T05:33:28;3.97;;;1.35;;
25549;SDS011;13444;50.562;7.262;2022-09-09T05:35:58;4.00;;;1.52;;
25549;SDS011;13444;50.562;7.262;2022-09-09T05:38:26;3.95;;;1.52;;
25549;SDS011;13444;50.562;7.262;2022-09-09T05:40:52;4.38;;;1.23;;
25549;SDS011;13444;50.562;7.262;2022-09-09T05:43:21;7.97;;;1.75;;
25549;SDS011;13444;50.562;7.262;2022-09-09T05:45:47;5.57;;;1.58;;
25549;SDS011;13444;50.562;7.262;2022-09-09T05:48:16;7.45;;;1.85;;
25549;SDS011;13444;50.562;7.262;2022-09-09T05:50:42;2.88;;;1.20;;
25549;SDS011;13444;50.562;7.262;2022-09-09T05:53:10;5.85;;;1.70;;
25549;SDS011;13444;50.562;7.262;2022-09-09T05:55:35;6.07;;;1.63;;
25549;SDS011;13444;50.562;7.262;2022-09-09T05:58:01;4.70;;;1.20;;
25549;SDS011;13444;50.562;7.262;2022-09-09T06:00:27;8.68;;;1.70;;
25549;SDS011;13444;50.562;7.262;2022-09-09T06:02:53;5.78;;;1.60;;
25549;SDS011;13444;50.562;7.262;2022-09-09T06:05:19;6.43;;;1.50;;
25549;SDS011;13444;50.562;7.262;2022-09-09T06:07:45;6.43;;;1.55;;
25549;SDS011;13444;50.562;7.262;2022-09-09T06:10:11;6.95;;;1.55;;
25549;SDS011;13444;50.562;7.262;2022-09-09T06:12:39;13.07;;;1.45;;
25549;SDS011;13444;50.562;7.262;2022-09-09T06:15:05;8.77;;;1.70;;
25549;SDS011;13444;50.562;7.262;2022-09-09T06:17:32;6.97;;;1.58;;
25549;SDS011;13444;50.562;7.262;2022-09-09T06:19:57;7.38;;;1.48;;
25549;SDS011;13444;50.562;7.262;2022-09-09T06:22:23;5.93;;;1.38;;
25549;SDS011;13444;50.562;7.262;2022-09-09T06:24:48;4.20;;;1.65;;
25549;SDS011;13444;50.562;7.262;2022-09-09T06:27:14;5.78;;;1.60;;
25549;SDS011;13444;50.562;7.262;2022-09-09T06:29:39;8.75;;;1.95;;
25549;SDS011;13444;50.562;7.262;2022-09-09T06:32:05;5.68;;;1.80;;
25549;SDS011;13444;50.562;7.262;2022-09-09T06:34:33;5.57;;;1.75;;
25549;SDS011;13444;50.562;7.262;2022-09-09T06:36:59;9.82;;;1.75;;
25549;SDS011;13444;50.562;7.262;2022-09-09T06:39:25;3.75;;;1.60;;
25549;SDS011;13444;50.562;7.262;2022-09-09T06:41:51;7.22;;;1.70;;
25549;SDS011;13444;50.562;7.262;2022-09-09T06:44:18;7.22;;;1.92;;
25549;SDS011;13444;50.562;7.262;2022-09-09T06:46:44;6.63;;;1.67;;
25549;SDS011;13444;50.562;7.262;2022-09-09T06:49:12;7.93;;;1.75;;
25549;SDS011;13444;50.562;7.262;2022-09-09T06:51:38;5.05;;;1.50;;
25549;SDS011;13444;50.562;7.262;2022-09-09T06:54:07;3.45;;;1.38;;
25549;SDS011;13444;50.562;7.262;2022-09-09T06:56:34;2.97;;;1.33;;
25549;SDS011;13444;50.562;7.262;2022-09-09T06:59:03;9.07;;;1.60;;
25549;SDS011;13444;50.562;7.262;2022-09-09T07:01:34;9.40;;;1.65;;
25549;SDS011;13444;50.562;7.262;2022-09-09T07:04:01;7.55;;;1.60;;
25549;SDS011;13444;50.562;7.262;2022-09-09T07:06:30;3.30;;;1.23;;
25549;SDS011;13444;50.562;7.262;2022-09-09T07:09:01;5.40;;;1.40;;
25549;SDS011;13444;50.562;7.262;2022-09-09T07:11:40;9.15;;;1.80;;
25549;SDS011;13444;50.562;7.262;2022-09-09T07:14:10;7.72;;;1.60;;
25549;SDS011;13444;50.562;7.262;2022-09-09T07:16:42;10.38;;;1.98;;
25549;SDS011;13444;50.562;7.262;2022-09-09T07:19:09;9.38;;;2.15;;
25549;SDS011;13444;50.562;7.262;2022-09-09T07:21:35;9.65;;;1.70;;
25549;SDS011;13444;50.562;7.262;2022-09-09T07:24:01;8.05;;;1.45;;
25549;SDS011;13444;50.562;7.262;2022-09-09T07:26:28;9.25;;;1.55;;
25549;SDS011;13444;50.562;7.262;2022-09-09T07:28:55;9.27;;;1.50;;
25549;SDS011;13444;50.562;7.262;2022-09-09T07:34:01;8.73;;;1.70;;
25549;SDS011;13444;50.562;7.262;2022-09-09T07:36:31;6.75;;;1.60;;
25549;SDS011;13444;50.562;7.262;2022-09-09T07:39:08;7.90;;;1.85;;
25549;SDS011;13444;50.562;7.262;2022-09-09T07:41:37;6.03;;;1.42;;
25549;SDS011;13444;50.562;7.262;2022-09-09T07:44:06;8.48;;;1.38;;
25549;SDS011;13444;50.562;7.262;2022-09-09T07:46:34;5.53;;;1.52;;
25549;SDS011;13444;50.562;7.262;2022-09-09T07:49:00;10.20;;;1.58;;
25549;SDS011;13444;50.562;7.262;2022-09-09T07:51:27;8.15;;;1.90;;
25549;SDS011;13444;50.562;7.262;2022-09-09T07:53:55;8.20;;;1.92;;
25549;SDS011;13444;50.562;7.262;2022-09-09T07:56:23;6.35;;;1.55;;
25549;SDS011;13444;50.562;7.262;2022-09-09T07:58:51;8.55;;;1.52;;
25549;SDS011;13444;50.562;7.262;2022-09-09T08:01:18;5.38;;;1.48;;
25549;SDS011;13444;50.562;7.262;2022-09-09T08:03:47;7.50;;;1.30;;
25549;SDS011;13444;50.562;7.262;2022-09-09T08:06:17;9.10;;;2.08;;
25549;SDS011;13444;50.562;7.262;2022-09-09T08:08:43;7.13;;;1.55;;
25549;SDS011;13444;50.562;7.262;2022-09-09T08:11:12;7.05;;;1.55;;
25549;SDS011;13444;50.562;7.262;2022-09-09T08:13:39;7.40;;;1.55;;
25549;SDS011;13444;50.562;7.262;2022-09-09T08:16:11;7.43;;;1.50;;
25549;SDS011;13444;50.562;7.262;2022-09-09T08:18:39;8.93;;;2.03;;
25549;SDS011;13444;50.562;7.262;2022-09-09T08:21:06;6.88;;;1.52;;
25549;SDS011;13444;50.562;7.262;2022-09-09T08:23:40;4.47;;;1.42;;
25549;SDS011;13444;50.562;7.262;2022-09-09T08:26:11;6.15;;;1.45;;
25549;SDS011;13444;50.562;7.262;2022-09-09T08:28:38;7.60;;;1.33;;
25549;SDS011;13444;50.562;7.262;2022-09-09T08:31:15;5.45;;;1.52;;
25549;SDS011;13444;50.562;7.262;2022-09-09T08:33:42;7.18;;;1.30;;
25549;SDS011;13444;50.562;7.262;2022-09-09T08:36:10;6.32;;;1.40;;
25549;SDS011;13444;50.562;7.262;2022-09-09T08:38:38;5.03;;;1.27;;
25549;SDS011;13444;50.562;7.262;2022-09-09T08:41:07;3.95;;;1.23;;
25549;SDS011;13444;50.562;7.262;2022-09-09T08:44:14;8.45;;;1.58;;
25549;SDS011;13444;50.562;7.262;2022-09-09T08:49:27;4.05;;;1.10;;
25549;SDS011;13444;50.562;7.262;2022-09-09T08:51:55;5.20;;;1.08;;
25549;SDS011;13444;50.562;7.262;2022-09-09T08:54:22;6.30;;;1.20;;
25549;SDS011;13444;50.562;7.262;2022-09-09T08:56:48;4.93;;;1.23;;
25549;SDS011;13444;50.562;7.262;2022-09-09T08:59:15;6.72;;;1.42;;
25549;SDS011;13444;50.562;7.262;2022-09-09T09:04:29;3.58;;;1.13;;
25549;SDS011;13444;50.562;7.262;2022-09-09T09:10:05;4.72;;;1.52;;
25549;SDS011;13444;50.562;7.262;2022-09-09T09:12:51;3.60;;;1.13;;
25549;SDS011;13444;50.562;7.262;2022-09-09T09:15:25;4.85;;;1.35;;
25549;SDS011;13444;50.562;7.262;2022-09-09T09:17:53;4.93;;;1.30;;
25549;SDS011;13444;50.562;7.262;2022-09-09T09:20:21;6.43;;;1.70;;
25549;SDS011;13444;50.562;7.262;2022-09-09T09:22:53;7.78;;;1.30;;
25549;SDS011;13444;50.562;7.262;2022-09-09T09:25:40;7.63;;;1.50;;
25549;SDS011;13444;50.562;7.262;2022-09-09T09:28:17;4.38;;;1.13;;
25549;SDS011;13444;50.562;7.262;2022-09-09T09:31:04;3.75;;;1.15;;
25549;SDS011;13444;50.562;7.262;2022-09-09T09:33:38;5.20;;;1.38;;
25549;SDS011;13444;50.562;7.262;2022-09-09T09:36:12;5.43;;;0.95;;
25549;SDS011;13444;50.562;7.262;2022-09-09T09:38:50;5.10;;;1.27;;
25549;SDS011;13444;50.562;7.262;2022-09-09T09:41:28;5.75;;;1.33;;
25549;SDS011;13444;50.562;7.262;2022-09-09T09:43:55;4.90;;;1.40;;
25549;SDS011;13444;50.562;7.262;2022-09-09T09:46:21;3.90;;;1.00;;
25549;SDS011;13444;50.562;7.262;2022-09-09T09:48:58;3.75;;;1.40;;
25549;SDS011;13444;50.562;7.262;2022-09-09T09:51:25;5.50;;;1.45;;
25549;SDS011;13444;50.562;7.262;2022-09-09T09:53:53;5.57;;;1.40;;
25549;SDS011;13444;50.562;7.262;2022-09-09T09:56:25;9.65;;;1.27;;
25549;SDS011;13444;50.562;7.262;2022-09-09T09:58:54;7.38;;;1.23;;
25549;SDS011;13444;50.562;7.262;2022-09-09T10:03:50;4.80;;;1.10;;
25549;SDS011;13444;50.562;7.262;2022-09-09T10:06:16;8.32;;;1.25;;
25549;SDS011;13444;50.562;7.262;2022-09-09T10:08:45;9.45;;;1.60;;
25549;SDS011;13444;50.562;7.262;2022-09-09T10:19:35;4.82;;;1.08;;
25549;SDS011;13444;50.562;7.262;2022-09-09T10:30:22;2.72;;;0.85;;
25549;SDS011;13444;50.562;7.262;2022-09-09T10:33:14;3.55;;;0.98;;
25549;SDS011;13444;50.562;7.262;2022-09-09T10:35:52;6.53;;;1.40;;
25549;SDS011;13444;50.562;7.262;2022-09-09T10:38:36;5.38;;;1.05;;
25549;SDS011;13444;50.562;7.262;2022-09-09T10:41:11;4.15;;;1.25;;
25549;SDS011;13444;50.562;7.262;2022-09-09T10:43:55;9.00;;;1.38;;
25549;SDS011;13444;50.562;7.262;2022-09-09T10:46:36;5.32;;;1.02;;
25549;SDS011;13444;50.562;7.262;2022-09-09T10:52:06;5.38;;;1.10;;
25549;SDS011;13444;50.562;7.262;2022-09-09T10:55:10;6.28;;;1.42;;
25549;SDS011;13444;50.562;7.262;2022-09-09T10:57:48;4.50;;;1.23;;
25549;SDS011;13444;50.562;7.262;2022-09-09T11:00:24;5.20;;;1.00;;
25549;SDS011;13444;50.562;7.262;2022-09-09T11:03:04;4.32;;;1.23;;
25549;SDS011;13444;50.562;7.262;2022-09-09T11:05:31;4.28;;;1.13;;
25549;SDS011;13444;50.562;7.262;2022-09-09T11:08:15;4.78;;;1.27;;
25549;SDS011;13444;50.562;7.262;2022-09-09T11:10:44;4.35;;;1.10;;
25549;SDS011;13444;50.562;7.262;2022-09-09T11:13:22;4.25;;;1.20;;
25549;SDS011;13444;50.562;7.262;2022-09-09T11:15:58;4.22;;;1.20;;
25549;SDS011;13444;50.562;7.262;2022-09-09T11:18:48;6.65;;;1.40;;
25549;SDS011;13444;50.562;7.262;2022-09-09T11:21:25;2.75;;;0.82;;
25549;SDS011;13444;50.562;7.262;2022-09-09T11:23:59;5.50;;;1.10;;
25549;SDS011;13444;50.562;7.262;2022-09-09T11:26:37;4.65;;;1.08;;
25549;SDS011;13444;50.562;7.262;2022-09-09T11:39:44;4.80;;;0.98;;
25549;SDS011;13444;50.562;7.262;2022-09-09T11:42:23;2.55;;;0.93;;
25549;SDS011;13444;50.562;7.262;2022-09-09T11:44:49;5.97;;;1.58;;
25549;SDS011;13444;50.562;7.262;2022-09-09T11:47:23;5.90;;;1.17;;
25549;SDS011;13444;50.562;7.262;2022-09-09T11:49:51;3.92;;;1.10;;
25549;SDS011;13444;50.562;7.262;2022-09-09T11:55:27;6.82;;;1.17;;
25549;SDS011;13444;50.562;7.262;2022-09-09T11:57:59;2.70;;;0.93;;
25549;SDS011;13444;50.562;7.262;2022-09-09T12:02:59;2.75;;;1.00;;
25549;SDS011;13444;50.562;7.262;2022-09-09T12:05:35;3.75;;;1.00;;
25549;SDS011;13444;50.562;7.262;2022-09-09T12:08:10;4.72;;;0.90;;
25549;SDS011;13444;50.562;7.262;2022-09-09T12:10:52;5.47;;;1.17;;
25549;SDS011;13444;50.562;7.262;2022-09-09T12:13:20;4.45;;;0.80;;
25549;SDS011;13444;50.562;7.262;2022-09-09T12:15:52;2.58;;;0.93;;
25549;SDS011;13444;50.562;7.262;2022-09-09T12:18:22;4.18;;;1.15;;
25549;SDS011;13444;50.562;7.262;2022-09-09T12:20:57;5.00;;;1.10;;
25549;SDS011;13444;50.562;7.262;2022-09-09T12:23:40;3.28;;;0.90;;
25549;SDS011;13444;50.562;7.262;2022-09-09T12:26:22;1.90;;;0.65;;
25549;SDS011;13444;50.562;7.262;2022-09-09T12:29:01;4.70;;;1.02;;
25549;SDS011;13444;50.562;7.262;2022-09-09T12:31:33;5.25;;;0.93;;
25549;SDS011;13444;50.562;7.262;2022-09-09T12:34:11;2.85;;;0.85;;
25549;SDS011;13444;50.562;7.262;2022-09-09T12:36:41;4.80;;;0.60;;
25549;SDS011;13444;50.562;7.262;2022-09-09T12:39:27;1.92;;;0.82;;
25549;SDS011;13444;50.562;7.262;2022-09-09T12:41:58;5.78;;;0.82;;
25549;SDS011;13444;50.562;7.262;2022-09-09T12:44:25;4.25;;;0.88;;
25549;SDS011;13444;50.562;7.262;2022-09-09T12:46:53;6.07;;;1.25;;
25549;SDS011;13444;50.562;7.262;2022-09-09T12:49:31;2.63;;;0.60;;
25549;SDS011;13444;50.562;7.262;2022-09-09T12:54:56;2.50;;;0.90;;
25549;SDS011;13444;50.562;7.262;2022-09-09T12:57:25;2.95;;;0.90;;
25549;SDS011;13444;50.562;7.262;2022-09-09T13:00:03;3.13;;;0.70;;
25549;SDS011;13444;50.562;7.262;2022-09-09T13:02:34;1.23;;;0.60;;
25549;SDS011;13444;50.562;7.262;2022-09-09T13:05:13;3.20;;;0.73;;
25549;SDS011;13444;50.562;7.262;2022-09-09T13:07:41;2.40;;;0.82;;
25549;SDS011;13444;50.562;7.262;2022-09-09T13:10:10;3.65;;;0.90;;
25549;SDS011;13444;50.562;7.262;2022-09-09T13:12:36;4.43;;;0.85;;
25549;SDS011;13444;50.562;7.262;2022-09-09T13:15:03;3.78;;;0.80;;
25549;SDS011;13444;50.562;7.262;2022-09-09T13:17:29;1.90;;;0.63;;
25549;SDS011;13444;50.562;7.262;2022-09-09T13:19:54;2.47;;;0.70;;
25549;SDS011;13444;50.562;7.262;2022-09-09T13:22:34;5.80;;;0.80;;
25549;SDS011;13444;50.562;7.262;2022-09-09T13:27:36;2.38;;;0.90;;
25549;SDS011;13444;50.562;7.262;2022-09-09T13:35:28;4.72;;;0.88;;
25549;SDS011;13444;50.562;7.262;2022-09-09T13:37:55;3.92;;;0.90;;
25549;SDS011;13444;50.562;7.262;2022-09-09T13:40:21;1.75;;;0.60;;
25549;SDS011;13444;50.562;7.262;2022-09-09T13:42:51;4.80;;;1.02;;
25549;SDS011;13444;50.562;7.262;2022-09-09T13:45:20;6.47;;;1.48;;
25549;SDS011;13444;50.562;7.262;2022-09-09T13:47:47;7.78;;;1.20;;
25549;SDS011;13444;50.562;7.262;2022-09-09T13:50:29;3.25;;;0.90;;
25549;SDS011;13444;50.562;7.262;2022-09-09T13:52:56;8.52;;;1.30;;
25549;SDS011;13444;50.562;7.262;2022-09-09T13:55:24;4.97;;;0.85;;
25549;SDS011;13444;50.562;7.262;2022-09-09T13:57:55;7.18;;;1.10;;
25549;SDS011;13444;50.562;7.262;2022-09-09T14:00:31;6.13;;;1.38;;
25549;SDS011;13444;50.562;7.262;2022-09-09T14:02:59;1.60;;;0.70;;
25549;SDS011;13444;50.562;7.262;2022-09-09T14:05:27;3.55;;;0.80;;
25549;SDS011;13444;50.562;7.262;2022-09-09T14:07:54;4.55;;;0.88;;
25549;SDS011;13444;50.562;7.262;2022-09-09T14:10:20;5.88;;;1.25;;
25549;SDS011;13444;50.562;7.262;2022-09-09T14:12:47;3.80;;;1.20;;
25549;SDS011;13444;50.562;7.262;2022-09-09T14:15:12;4.43;;;1.10;;
25549;SDS011;13444;50.562;7.262;2022-09-09T14:17:39;4.82;;;0.95;;
25549;SDS011;13444;50.562;7.262;2022-09-09T14:20:05;3.70;;;1.10;;
25549;SDS011;13444;50.562;7.262;2022-09-09T14:22:32;5.57;;;1.13;;
25549;SDS011;13444;50.562;7.262;2022-09-09T14:24:58;2.88;;;0.70;;
25549;SDS011;13444;50.562;7.262;2022-09-09T14:27:23;1.80;;;0.63;;
25549;SDS011;13444;50.562;7.262;2022-09-09T14:29:51;1.40;;;0.70;;
25549;SDS011;13444;50.562;7.262;2022-09-09T14:32:17;10.73;;;1.25;;
25549;SDS011;13444;50.562;7.262;2022-09-09T14:34:43;1.90;;;0.55;;
25549;SDS011;13444;50.562;7.262;2022-09-09T14:37:09;2.60;;;0.70;;
25549;SDS011;13444;50.562;7.262;2022-09-09T14:39:34;4.57;;;0.65;;
25549;SDS011;13444;50.562;7.262;2022-09-09T14:42:00;1.98;;;0.63;;
25549;SDS011;13444;50.562;7.262;2022-09-09T14:44:27;1.73;;;0.60;;
25549;SDS011;13444;50.562;7.262;2022-09-09T14:46:52;1.95;;;0.60;;
25549;SDS011;13444;50.562;7.262;2022-09-09T14:49:19;2.33;;;0.70;;
25549;SDS011;13444;50.562;7.262;2022-09-09T14:51:44;1.48;;;0.50;;
25549;SDS011;13444;50.562;7.262;2022-09-09T14:54:10;2.72;;;0.90;;
25549;SDS011;13444;50.562;7.262;2022-09-09T14:56:35;3.35;;;0.85;;
25549;SDS011;13444;50.562;7.262;2022-09-09T14:59:02;1.45;;;0.60;;
25549;SDS011;13444;50.562;7.262;2022-09-09T15:01:28;3.40;;;0.85;;
25549;SDS011;13444;50.562;7.262;2022-09-09T15:03:55;1.90;;;0.70;;
25549;SDS011;13444;50.562;7.262;2022-09-09T15:06:25;2.67;;;0.68;;
25549;SDS011;13444;50.562;7.262;2022-09-09T15:08:54;1.73;;;0.73;;
25549;SDS011;13444;50.562;7.262;2022-09-09T15:11:22;7.22;;;1.20;;
25549;SDS011;13444;50.562;7.262;2022-09-09T15:13:50;2.03;;;0.80;;
25549;SDS011;13444;50.562;7.262;2022-09-09T15:16:19;2.47;;;0.70;;
25549;SDS011;13444;50.562;7.262;2022-09-09T15:18:46;2.72;;;0.52;;
25549;SDS011;13444;50.562;7.262;2022-09-09T15:21:17;1.98;;;0.63;;
25549;SDS011;13444;50.562;7.262;2022-09-09T15:23:47;1.58;;;0.50;;
25549;SDS011;13444;50.562;7.262;2022-09-09T15:26:13;1.33;;;0.50;;
25549;SDS011;13444;50.562;7.262;2022-09-09T15:28:40;2.08;;;0.75;;
25549;SDS011;13444;50.562;7.262;2022-09-09T15:31:12;2.15;;;0.82;;
25549;SDS011;13444;50.562;7.262;2022-09-09T15:33:39;1.52;;;0.73;;
25549;SDS011;13444;50.562;7.262;2022-09-09T15:36:12;1.25;;;0.70;;
25549;SDS011;13444;50.562;7.262;2022-09-09T15:38:42;2.47;;;0.68;;
25549;SDS011;13444;50.562;7.262;2022-09-09T15:41:09;25.08;;;3.28;;
25549;SDS011;13444;50.562;7.262;2022-09-09T15:43:35;15.43;;;1.98;;
25549;SDS011;13444;50.562;7.262;2022-09-09T15:46:05;9.43;;;0.88;;
25549;SDS011;13444;50.562;7.262;2022-09-09T15:49:14;4.15;;;0.88;;
25549;SDS011;13444;50.562;7.262;2022-09-09T15:51:53;4.00;;;1.08;;
25549;SDS011;13444;50.562;7.262;2022-09-09T15:54:21;1.92;;;0.88;;
25549;SDS011;13444;50.562;7.262;2022-09-09T15:56:52;2.17;;;0.60;;
25549;SDS011;13444;50.562;7.262;2022-09-09T15:59:20;1.77;;;0.75;;
25549;SDS011;13444;50.562;7.262;2022-09-09T16:01:47;2.08;;;0.52;;
25549;SDS011;13444;50.562;7.262;2022-09-09T16:04:15;3.67;;;0.77;;
25549;SDS011;13444;50.562;7.262;2022-09-09T16:06:46;2.13;;;0.70;;
25549;SDS011;13444;50.562;7.262;2022-09-09T16:09:11;2.30;;;0.68;;
25549;SDS011;13444;50.562;7.262;2022-09-09T16:11:37;5.65;;;1.23;;
25549;SDS011;13444;50.562;7.262;2022-09-09T16:14:04;2.70;;;0.73;;
25549;SDS011;13444;50.562;7.262;2022-09-09T16:16:31;4.97;;;1.00;;
25549;SDS011;13444;50.562;7.262;2022-09-09T16:18:58;3.28;;;1.10;;
25549;SDS011;13444;50.562;7.262;2022-09-09T16:21:26;5.18;;;1.20;;
25549;SDS011;13444;50.562;7.262;2022-09-09T16:23:57;4.03;;;1.20;;
25549;SDS011;13444;50.562;7.262;2022-09-09T16:26:28;5.95;;;1.05;;
25549;SDS011;13444;50.562;7.262;2022-09-09T16:28:55;5.38;;;1.10;;
25549;SDS011;13444;50.562;7.262;2022-09-09T16:31:23;3.28;;;1.20;;
25549;SDS011;13444;50.562;7.262;2022-09-09T16:33:49;4.05;;;0.98;;
25549;SDS011;13444;50.562;7.262;2022-09-09T16:36:19;4.97;;;1.20;;
25549;SDS011;13444;50.562;7.262;2022-09-09T16:38:45;5.03;;;1.27;;
25549;SDS011;13444;50.562;7.262;2022-09-09T16:41:13;4.07;;;1.35;;
25549;SDS011;13444;50.562;7.262;2022-09-09T16:43:39;4.32;;;1.35;;
25549;SDS011;13444;50.562;7.262;2022-09-09T16:46:17;3.63;;;1.08;;
25549;SDS011;13444;50.562;7.262;2022-09-09T16:48:44;3.50;;;1.10;;
25549;SDS011;13444;50.562;7.262;2022-09-09T16:51:22;3.10;;;1.02;;